sensor_id;sensor_type;location;lat;lon;timestamp;temperature;humidity
29917;DHT22;16786;49.466;11.068;2023-04-15T00:01:57;6.10;99.90
29917;DHT22;16786;49.466;11.068;2023-04-15T00:04:24;6.10;99.90
29917;DHT22;16786;49.466;11.068;2023-04-15T00:06:52;6.20;99.90
29917;DHT22;16786;49.466;11.068;2023-04-15T00:09:20;6.20;99.90
29917;DHT22;16786;49.466;11.068;2023-04-15T00:11:49;6.20;99.90
29917;DHT22;16786;49.466;11.068;2023-04-15T00:14:17;6.20;99.90
29917;DHT22;16786;49.466;11.068;2023-04-15T00:16:44;6.20;99.90
29917;DHT22;16786;49.466;11.068;2023-04-15T00:19:12;6.20;99.90
29917;DHT22;16786;49.466;11.068;2023-04-15T00:21:39;6.20;99.90
29917;DHT22;16786;49.466;11.068;2023-04-15T00:24:06;6.30;99.90
29917;DHT22;16786;49.466;11.068;2023-04-15T00:26:33;6.30;99.90
29917;DHT22;16786;49.466;11.068;2023-04-15T00:29:01;6.30;99.90
29917;DHT22;16786;49.466;11.068;2023-04-15T00:31:30;6.30;99.90
29917;DHT22;16786;49.466;11.068;2023-04-15T00:33:57;6.30;99.90
29917;DHT22;16786;49.466;11.068;2023-04-15T00:36:25;6.30;99.90
29917;DHT22;16786;49.466;11.068;2023-04-15T00:38:52;6.30;99.90
29917;DHT22;16786;49.466;11.068;2023-04-15T00:41:20;6.30;99.90
29917;DHT22;16786;49.466;11.068;2023-04-15T00:43:49;6.30;99.90
29917;DHT22;16786;49.466;11.068;2023-04-15T00:46:16;6.30;99.90
29917;DHT22;16786;49.466;11.068;2023-04-15T00:48:46;6.30;99.90
29917;DHT22;16786;49.466;11.068;2023-04-15T00:51:14;6.30;99.90
29917;DHT22;16786;49.466;11.068;2023-04-15T00:53:41;6.30;99.90
29917;DHT22;16786;49.466;11.068;2023-04-15T00:56:09;6.30;99.90
29917;DHT22;16786;49.466;11.068;2023-04-15T00:58:37;6.30;99.90
29917;DHT22;16786;49.466;11.068;2023-04-15T01:01:04;6.30;99.90
29917;DHT22;16786;49.466;11.068;2023-04-15T01:03:32;6.30;99.90
29917;DHT22;16786;49.466;11.068;2023-04-15T01:06:01;6.30;99.90
29917;DHT22;16786;49.466;11.068;2023-04-15T01:08:30;6.30;99.90
29917;DHT22;16786;49.466;11.068;2023-04-15T01:11:00;6.30;99.90
29917;DHT22;16786;49.466;11.068;2023-04-15T01:13:28;6.30;99.90
29917;DHT22;16786;49.466;11.068;2023-04-15T01:15:56;6.30;99.90
29917;DHT22;16786;49.466;11.068;2023-04-15T01:18:24;6.30;99.90
29917;DHT22;16786;49.466;11.068;2023-04-15T01:20:52;6.30;99.90
29917;DHT22;16786;49.466;11.068;2023-04-15T01:23:23;6.30;99.90
29917;DHT22;16786;49.466;11.068;2023-04-15T01:25:50;6.30;99.90
29917;DHT22;16786;49.466;11.068;2023-04-15T01:28:19;6.20;99.90
29917;DHT22;16786;49.466;11.068;2023-04-15T01:30:47;6.20;99.90
29917;DHT22;16786;49.466;11.068;2023-04-15T01:33:15;6.20;99.90
29917;DHT22;16786;49.466;11.068;2023-04-15T01:36:00;6.20;99.90
29917;DHT22;16786;49.466;11.068;2023-04-15T01:38:28;6.20;99.90
29917;DHT22;16786;49.466;11.068;2023-04-15T01:40:56;6.20;99.90
29917;DHT22;16786;49.466;11.068;2023-04-15T01:43:26;6.10;99.90
29917;DHT22;16786;49.466;11.068;2023-04-15T01:45:55;6.10;99.90
29917;DHT22;16786;49.466;11.068;2023-04-15T01:48:25;6.10;99.90
29917;DHT22;16786;49.466;11.068;2023-04-15T01:50:54;6.10;99.90
29917;DHT22;16786;49.466;11.068;2023-04-15T01:53:26;6.20;99.90
29917;DHT22;16786;49.466;11.068;2023-04-15T01:55:55;6.20;99.90
29917;DHT22;16786;49.466;11.068;2023-04-15T01:58:24;6.20;99.90
29917;DHT22;16786;49.466;11.068;2023-04-15T02:00:52;6.20;99.90
29917;DHT22;16786;49.466;11.068;2023-04-15T02:03:21;6.20;99.90
29917;DHT22;16786;49.466;11.068;2023-04-15T02:05:49;6.20;99.90
29917;DHT22;16786;49.466;11.068;2023-04-15T02:08:18;6.20;99.90
29917;DHT22;16786;49.466;11.068;2023-04-15T02:10:47;6.20;99.90
29917;DHT22;16786;49.466;11.068;2023-04-15T02:13:15;6.20;99.90
29917;DHT22;16786;49.466;11.068;2023-04-15T02:15:48;6.20;99.90
29917;DHT22;16786;49.466;11.068;2023-04-15T02:18:19;6.20;99.90
29917;DHT22;16786;49.466;11.068;2023-04-15T02:20:51;6.20;99.90
29917;DHT22;16786;49.466;11.068;2023-04-15T02:23:19;6.20;99.90
29917;DHT22;16786;49.466;11.068;2023-04-15T02:25:48;6.10;99.90
29917;DHT22;16786;49.466;11.068;2023-04-15T02:28:21;6.10;99.90
29917;DHT22;16786;49.466;11.068;2023-04-15T02:30:50;6.10;99.90
29917;DHT22;16786;49.466;11.068;2023-04-15T02:33:20;6.20;99.90
29917;DHT22;16786;49.466;11.068;2023-04-15T02:35:49;6.20;99.90
29917;DHT22;16786;49.466;11.068;2023-04-15T02:38:18;6.10;99.90
29917;DHT22;16786;49.466;11.068;2023-04-15T02:40:47;6.20;99.90
29917;DHT22;16786;49.466;11.068;2023-04-15T02:43:17;6.20;99.90
29917;DHT22;16786;49.466;11.068;2023-04-15T02:45:46;6.20;99.90
29917;DHT22;16786;49.466;11.068;2023-04-15T02:48:15;6.20;99.90
29917;DHT22;16786;49.466;11.068;2023-04-15T02:50:46;6.20;99.90
29917;DHT22;16786;49.466;11.068;2023-04-15T02:53:16;6.20;99.90
29917;DHT22;16786;49.466;11.068;2023-04-15T02:55:45;6.20;99.90
29917;DHT22;16786;49.466;11.068;2023-04-15T02:58:13;6.30;99.90
29917;DHT22;16786;49.466;11.068;2023-04-15T03:00:42;6.20;99.90
29917;DHT22;16786;49.466;11.068;2023-04-15T03:03:10;6.30;99.90
29917;DHT22;16786;49.466;11.068;2023-04-15T03:05:39;6.30;99.90
29917;DHT22;16786;49.466;11.068;2023-04-15T03:08:08;6.30;99.90
29917;DHT22;16786;49.466;11.068;2023-04-15T03:10:37;6.30;99.90
29917;DHT22;16786;49.466;11.068;2023-04-15T03:13:05;6.30;99.90
29917;DHT22;16786;49.466;11.068;2023-04-15T03:15:34;6.40;99.90
29917;DHT22;16786;49.466;11.068;2023-04-15T03:18:03;6.40;99.90
29917;DHT22;16786;49.466;11.068;2023-04-15T03:20:34;6.40;99.90
29917;DHT22;16786;49.466;11.068;2023-04-15T03:23:03;6.40;99.90
29917;DHT22;16786;49.466;11.068;2023-04-15T03:25:32;6.40;99.90
29917;DHT22;16786;49.466;11.068;2023-04-15T03:28:02;6.40;99.90
29917;DHT22;16786;49.466;11.068;2023-04-15T03:30:30;6.40;99.90
29917;DHT22;16786;49.466;11.068;2023-04-15T03:32:59;6.40;99.90
29917;DHT22;16786;49.466;11.068;2023-04-15T03:35:28;6.40;99.90
29917;DHT22;16786;49.466;11.068;2023-04-15T03:37:57;6.40;99.90
29917;DHT22;16786;49.466;11.068;2023-04-15T03:40:25;6.30;99.90
29917;DHT22;16786;49.466;11.068;2023-04-15T03:42:54;6.30;99.90
29917;DHT22;16786;49.466;11.068;2023-04-15T03:45:23;6.30;99.90
29917;DHT22;16786;49.466;11.068;2023-04-15T03:47:51;6.30;99.90
29917;DHT22;16786;49.466;11.068;2023-04-15T03:50:20;6.30;99.90
29917;DHT22;16786;49.466;11.068;2023-04-15T03:52:49;6.20;99.90
29917;DHT22;16786;49.466;11.068;2023-04-15T03:55:18;6.20;99.90
29917;DHT22;16786;49.466;11.068;2023-04-15T03:57:47;6.20;99.90
29917;DHT22;16786;49.466;11.068;2023-04-15T04:00:16;6.30;99.90
29917;DHT22;16786;49.466;11.068;2023-04-15T04:02:44;6.30;99.90
29917;DHT22;16786;49.466;11.068;2023-04-15T04:05:13;6.30;99.90
29917;DHT22;16786;49.466;11.068;2023-04-15T04:07:42;6.30;99.90
29917;DHT22;16786;49.466;11.068;2023-04-15T04:10:10;6.30;99.90
29917;DHT22;16786;49.466;11.068;2023-04-15T04:12:39;6.20;99.90
29917;DHT22;16786;49.466;11.068;2023-04-15T04:15:07;6.20;99.90
29917;DHT22;16786;49.466;11.068;2023-04-15T04:17:36;6.30;99.90
29917;DHT22;16786;49.466;11.068;2023-04-15T04:20:05;6.30;99.90
29917;DHT22;16786;49.466;11.068;2023-04-15T04:22:40;6.30;99.90
29917;DHT22;16786;49.466;11.068;2023-04-15T04:25:09;6.30;99.90
29917;DHT22;16786;49.466;11.068;2023-04-15T04:27:38;6.30;99.90
29917;DHT22;16786;49.466;11.068;2023-04-15T04:30:07;6.30;99.90
29917;DHT22;16786;49.466;11.068;2023-04-15T04:32:36;6.30;99.90
29917;DHT22;16786;49.466;11.068;2023-04-15T04:35:05;6.30;99.90
29917;DHT22;16786;49.466;11.068;2023-04-15T04:37:34;6.30;99.90
29917;DHT22;16786;49.466;11.068;2023-04-15T04:40:03;6.30;99.90
29917;DHT22;16786;49.466;11.068;2023-04-15T04:42:31;6.30;99.90
29917;DHT22;16786;49.466;11.068;2023-04-15T04:45:00;6.30;99.90
29917;DHT22;16786;49.466;11.068;2023-04-15T04:47:30;6.30;99.90
29917;DHT22;16786;49.466;11.068;2023-04-15T04:49:58;6.40;99.90
29917;DHT22;16786;49.466;11.068;2023-04-15T04:52:27;6.40;99.90
29917;DHT22;16786;49.466;11.068;2023-04-15T04:54:55;6.40;99.90
29917;DHT22;16786;49.466;11.068;2023-04-15T04:57:24;6.40;99.90
29917;DHT22;16786;49.466;11.068;2023-04-15T04:59:52;6.40;99.90
29917;DHT22;16786;49.466;11.068;2023-04-15T05:02:21;6.40;99.90
29917;DHT22;16786;49.466;11.068;2023-04-15T05:04:50;6.40;99.90
29917;DHT22;16786;49.466;11.068;2023-04-15T05:07:21;6.40;99.90
29917;DHT22;16786;49.466;11.068;2023-04-15T05:09:50;6.50;99.90
29917;DHT22;16786;49.466;11.068;2023-04-15T05:12:18;6.50;99.90
29917;DHT22;16786;49.466;11.068;2023-04-15T05:14:47;6.50;99.90
29917;DHT22;16786;49.466;11.068;2023-04-15T05:17:15;6.60;99.90
29917;DHT22;16786;49.466;11.068;2023-04-15T05:19:44;6.60;99.90
29917;DHT22;16786;49.466;11.068;2023-04-15T05:22:12;6.70;99.90
29917;DHT22;16786;49.466;11.068;2023-04-15T05:24:41;6.70;99.90
29917;DHT22;16786;49.466;11.068;2023-04-15T05:27:09;6.80;99.90
29917;DHT22;16786;49.466;11.068;2023-04-15T05:29:38;6.80;99.90
29917;DHT22;16786;49.466;11.068;2023-04-15T05:32:07;6.90;99.90
29917;DHT22;16786;49.466;11.068;2023-04-15T05:34:35;7.00;99.90
29917;DHT22;16786;49.466;11.068;2023-04-15T05:37:04;7.00;99.90
29917;DHT22;16786;49.466;11.068;2023-04-15T05:39:33;7.10;99.90
29917;DHT22;16786;49.466;11.068;2023-04-15T05:42:01;7.20;99.90
29917;DHT22;16786;49.466;11.068;2023-04-15T05:44:30;7.20;99.90
29917;DHT22;16786;49.466;11.068;2023-04-15T05:46:59;7.20;99.90
29917;DHT22;16786;49.466;11.068;2023-04-15T05:49:28;7.20;99.90
29917;DHT22;16786;49.466;11.068;2023-04-15T05:51:56;7.20;99.90
29917;DHT22;16786;49.466;11.068;2023-04-15T05:54:24;7.20;99.90
29917;DHT22;16786;49.466;11.068;2023-04-15T05:56:55;7.20;99.90
29917;DHT22;16786;49.466;11.068;2023-04-15T05:59:24;7.30;99.90
29917;DHT22;16786;49.466;11.068;2023-04-15T06:01:53;7.30;99.90
29917;DHT22;16786;49.466;11.068;2023-04-15T06:04:21;7.30;99.90
29917;DHT22;16786;49.466;11.068;2023-04-15T06:06:50;7.40;99.90
29917;DHT22;16786;49.466;11.068;2023-04-15T06:09:19;7.50;99.90
29917;DHT22;16786;49.466;11.068;2023-04-15T06:11:48;7.60;99.90
29917;DHT22;16786;49.466;11.068;2023-04-15T06:14:16;7.60;99.90
29917;DHT22;16786;49.466;11.068;2023-04-15T06:16:45;7.60;99.90
29917;DHT22;16786;49.466;11.068;2023-04-15T06:19:14;7.60;99.90
29917;DHT22;16786;49.466;11.068;2023-04-15T06:21:43;7.60;99.90
29917;DHT22;16786;49.466;11.068;2023-04-15T06:24:12;7.60;99.90
29917;DHT22;16786;49.466;11.068;2023-04-15T06:26:40;7.60;99.90
29917;DHT22;16786;49.466;11.068;2023-04-15T06:29:09;7.60;99.90
29917;DHT22;16786;49.466;11.068;2023-04-15T06:31:37;7.70;99.90
29917;DHT22;16786;49.466;11.068;2023-04-15T06:34:06;7.70;99.90
29917;DHT22;16786;49.466;11.068;2023-04-15T06:36:34;7.80;99.90
29917;DHT22;16786;49.466;11.068;2023-04-15T06:39:03;7.80;99.90
29917;DHT22;16786;49.466;11.068;2023-04-15T06:41:32;7.80;99.90
29917;DHT22;16786;49.466;11.068;2023-04-15T06:44:01;7.80;99.90
29917;DHT22;16786;49.466;11.068;2023-04-15T06:46:30;7.80;99.90
29917;DHT22;16786;49.466;11.068;2023-04-15T06:48:58;7.80;99.90
29917;DHT22;16786;49.466;11.068;2023-04-15T06:51:27;7.90;99.90
29917;DHT22;16786;49.466;11.068;2023-04-15T06:53:56;8.10;99.90
29917;DHT22;16786;49.466;11.068;2023-04-15T06:56:25;8.20;99.90
29917;DHT22;16786;49.466;11.068;2023-04-15T06:58:54;8.20;99.90
29917;DHT22;16786;49.466;11.068;2023-04-15T07:01:22;8.30;99.90
29917;DHT22;16786;49.466;11.068;2023-04-15T07:03:51;8.50;99.90
29917;DHT22;16786;49.466;11.068;2023-04-15T07:06:20;8.60;99.90
29917;DHT22;16786;49.466;11.068;2023-04-15T07:08:49;8.70;99.90
29917;DHT22;16786;49.466;11.068;2023-04-15T07:11:17;8.60;99.90
29917;DHT22;16786;49.466;11.068;2023-04-15T07:13:46;8.70;99.90
29917;DHT22;16786;49.466;11.068;2023-04-15T07:16:15;8.70;99.90
29917;DHT22;16786;49.466;11.068;2023-04-15T07:18:43;8.70;99.90
29917;DHT22;16786;49.466;11.068;2023-04-15T07:21:12;8.80;99.90
29917;DHT22;16786;49.466;11.068;2023-04-15T07:23:41;8.90;99.90
29917;DHT22;16786;49.466;11.068;2023-04-15T07:26:11;9.00;99.90
29917;DHT22;16786;49.466;11.068;2023-04-15T07:28:40;9.10;99.90
29917;DHT22;16786;49.466;11.068;2023-04-15T07:31:08;9.30;99.90
29917;DHT22;16786;49.466;11.068;2023-04-15T07:33:37;9.40;99.90
29917;DHT22;16786;49.466;11.068;2023-04-15T07:36:05;9.60;99.90
29917;DHT22;16786;49.466;11.068;2023-04-15T07:38:34;9.70;99.90
29917;DHT22;16786;49.466;11.068;2023-04-15T07:41:02;9.80;99.90
29917;DHT22;16786;49.466;11.068;2023-04-15T07:43:32;9.90;99.90
29917;DHT22;16786;49.466;11.068;2023-04-15T07:46:00;9.80;99.90
29917;DHT22;16786;49.466;11.068;2023-04-15T07:48:29;9.70;99.90
29917;DHT22;16786;49.466;11.068;2023-04-15T07:50:57;9.70;99.90
29917;DHT22;16786;49.466;11.068;2023-04-15T07:53:26;9.60;99.90
29917;DHT22;16786;49.466;11.068;2023-04-15T07:55:55;9.70;99.90
29917;DHT22;16786;49.466;11.068;2023-04-15T07:58:23;9.60;99.90
29917;DHT22;16786;49.466;11.068;2023-04-15T08:00:52;9.90;99.90
29917;DHT22;16786;49.466;11.068;2023-04-15T08:03:22;10.00;99.90
29917;DHT22;16786;49.466;11.068;2023-04-15T08:05:51;10.10;99.90
29917;DHT22;16786;49.466;11.068;2023-04-15T08:08:19;10.30;99.90
29917;DHT22;16786;49.466;11.068;2023-04-15T08:10:49;10.00;99.90
29917;DHT22;16786;49.466;11.068;2023-04-15T08:13:19;9.80;99.90
29917;DHT22;16786;49.466;11.068;2023-04-15T08:16:21;9.50;99.90
29917;DHT22;16786;49.466;11.068;2023-04-15T08:18:52;9.40;99.90
29917;DHT22;16786;49.466;11.068;2023-04-15T08:21:21;9.40;99.90
29917;DHT22;16786;49.466;11.068;2023-04-15T08:23:51;9.30;99.90
29917;DHT22;16786;49.466;11.068;2023-04-15T08:26:20;9.00;99.90
29917;DHT22;16786;49.466;11.068;2023-04-15T08:28:49;9.00;99.90
29917;DHT22;16786;49.466;11.068;2023-04-15T08:31:18;8.90;99.90
29917;DHT22;16786;49.466;11.068;2023-04-15T08:33:47;8.90;99.90
29917;DHT22;16786;49.466;11.068;2023-04-15T08:36:15;8.70;99.90
29917;DHT22;16786;49.466;11.068;2023-04-15T08:38:44;8.60;99.90
29917;DHT22;16786;49.466;11.068;2023-04-15T08:41:20;8.50;99.90
29917;DHT22;16786;49.466;11.068;2023-04-15T08:43:57;8.40;99.90
29917;DHT22;16786;49.466;11.068;2023-04-15T08:46:26;8.30;99.90
29917;DHT22;16786;49.466;11.068;2023-04-15T08:48:57;8.10;99.90
29917;DHT22;16786;49.466;11.068;2023-04-15T08:51:26;8.10;99.90
29917;DHT22;16786;49.466;11.068;2023-04-15T08:53:54;8.10;99.90
29917;DHT22;16786;49.466;11.068;2023-04-15T08:56:24;8.20;99.90
29917;DHT22;16786;49.466;11.068;2023-04-15T08:58:54;8.10;99.90
29917;DHT22;16786;49.466;11.068;2023-04-15T09:01:23;8.00;99.90
29917;DHT22;16786;49.466;11.068;2023-04-15T09:03:52;8.10;99.90
29917;DHT22;16786;49.466;11.068;2023-04-15T09:06:24;8.00;99.90
29917;DHT22;16786;49.466;11.068;2023-04-15T09:08:53;8.00;99.90
29917;DHT22;16786;49.466;11.068;2023-04-15T09:11:22;8.10;99.90
29917;DHT22;16786;49.466;11.068;2023-04-15T09:13:50;8.10;99.90
29917;DHT22;16786;49.466;11.068;2023-04-15T09:16:19;8.20;99.90
29917;DHT22;16786;49.466;11.068;2023-04-15T09:18:47;8.20;99.90
29917;DHT22;16786;49.466;11.068;2023-04-15T09:21:16;8.40;99.90
29917;DHT22;16786;49.466;11.068;2023-04-15T09:23:57;8.50;99.90
29917;DHT22;16786;49.466;11.068;2023-04-15T09:26:38;8.70;99.90
29917;DHT22;16786;49.466;11.068;2023-04-15T09:29:09;8.70;99.90
29917;DHT22;16786;49.466;11.068;2023-04-15T09:31:38;9.00;99.90
29917;DHT22;16786;49.466;11.068;2023-04-15T09:34:07;8.90;99.90
29917;DHT22;16786;49.466;11.068;2023-04-15T09:39:15;8.80;99.90
29917;DHT22;16786;49.466;11.068;2023-04-15T09:41:44;8.60;99.90
29917;DHT22;16786;49.466;11.068;2023-04-15T09:44:25;8.60;99.90
29917;DHT22;16786;49.466;11.068;2023-04-15T09:46:54;8.50;99.90
29917;DHT22;16786;49.466;11.068;2023-04-15T09:49:23;8.30;99.90
29917;DHT22;16786;49.466;11.068;2023-04-15T09:52:00;8.10;99.90
29917;DHT22;16786;49.466;11.068;2023-04-15T09:54:37;8.20;99.90
29917;DHT22;16786;49.466;11.068;2023-04-15T09:57:07;8.30;99.90
29917;DHT22;16786;49.466;11.068;2023-04-15T09:59:37;8.30;99.90
29917;DHT22;16786;49.466;11.068;2023-04-15T10:02:06;8.30;99.90
29917;DHT22;16786;49.466;11.068;2023-04-15T10:04:39;8.40;99.90
29917;DHT22;16786;49.466;11.068;2023-04-15T10:07:10;8.40;99.90
29917;DHT22;16786;49.466;11.068;2023-04-15T10:09:40;8.40;99.90
29917;DHT22;16786;49.466;11.068;2023-04-15T10:12:09;8.20;99.90
29917;DHT22;16786;49.466;11.068;2023-04-15T10:14:39;8.10;99.90
29917;DHT22;16786;49.466;11.068;2023-04-15T10:17:10;8.10;99.90
29917;DHT22;16786;49.466;11.068;2023-04-15T10:19:42;8.20;99.90
29917;DHT22;16786;49.466;11.068;2023-04-15T10:22:11;8.30;99.90
29917;DHT22;16786;49.466;11.068;2023-04-15T10:24:41;8.10;99.90
29917;DHT22;16786;49.466;11.068;2023-04-15T10:27:10;8.00;99.90
29917;DHT22;16786;49.466;11.068;2023-04-15T10:29:39;8.00;99.90
29917;DHT22;16786;49.466;11.068;2023-04-15T10:32:09;8.10;99.90
29917;DHT22;16786;49.466;11.068;2023-04-15T10:34:38;8.40;99.90
29917;DHT22;16786;49.466;11.068;2023-04-15T10:37:09;8.40;99.90
29917;DHT22;16786;49.466;11.068;2023-04-15T10:39:40;8.30;99.90
29917;DHT22;16786;49.466;11.068;2023-04-15T10:42:15;8.20;99.90
29917;DHT22;16786;49.466;11.068;2023-04-15T10:44:48;8.30;99.90
29917;DHT22;16786;49.466;11.068;2023-04-15T10:47:19;8.20;99.90
29917;DHT22;16786;49.466;11.068;2023-04-15T10:49:50;8.20;99.90
29917;DHT22;16786;49.466;11.068;2023-04-15T10:52:25;8.30;99.90
29917;DHT22;16786;49.466;11.068;2023-04-15T10:55:02;8.70;99.90
29917;DHT22;16786;49.466;11.068;2023-04-15T10:57:37;9.00;99.90
29917;DHT22;16786;49.466;11.068;2023-04-15T11:00:17;9.10;99.90
29917;DHT22;16786;49.466;11.068;2023-04-15T11:02:51;9.50;99.90
29917;DHT22;16786;49.466;11.068;2023-04-15T11:05:22;10.00;99.90
29917;DHT22;16786;49.466;11.068;2023-04-15T11:07:53;10.40;99.90
29917;DHT22;16786;49.466;11.068;2023-04-15T11:13:01;10.50;99.90
29917;DHT22;16786;49.466;11.068;2023-04-15T11:15:37;10.30;99.90
29917;DHT22;16786;49.466;11.068;2023-04-15T11:18:25;10.20;99.90
29917;DHT22;16786;49.466;11.068;2023-04-15T11:20:57;9.90;99.90
29917;DHT22;16786;49.466;11.068;2023-04-15T11:23:46;9.60;99.90
29917;DHT22;16786;49.466;11.068;2023-04-15T11:26:15;9.40;99.90
29917;DHT22;16786;49.466;11.068;2023-04-15T11:28:45;9.40;99.90
29917;DHT22;16786;49.466;11.068;2023-04-15T11:31:16;9.20;99.90
29917;DHT22;16786;49.466;11.068;2023-04-15T11:33:46;8.90;99.90
29917;DHT22;16786;49.466;11.068;2023-04-15T11:36:22;8.80;99.90
29917;DHT22;16786;49.466;11.068;2023-04-15T11:38:51;8.70;99.90
29917;DHT22;16786;49.466;11.068;2023-04-15T11:41:20;8.50;99.90
29917;DHT22;16786;49.466;11.068;2023-04-15T11:43:50;8.40;99.90
29917;DHT22;16786;49.466;11.068;2023-04-15T11:46:19;8.40;99.90
29917;DHT22;16786;49.466;11.068;2023-04-15T11:48:49;8.50;99.90
29917;DHT22;16786;49.466;11.068;2023-04-15T11:51:17;8.70;99.90
29917;DHT22;16786;49.466;11.068;2023-04-15T11:53:49;8.60;99.90
29917;DHT22;16786;49.466;11.068;2023-04-15T11:56:22;8.60;99.90
29917;DHT22;16786;49.466;11.068;2023-04-15T11:58:56;8.60;99.90
29917;DHT22;16786;49.466;11.068;2023-04-15T12:01:35;8.70;99.90
29917;DHT22;16786;49.466;11.068;2023-04-15T12:06:40;8.60;99.90
29917;DHT22;16786;49.466;11.068;2023-04-15T12:09:09;8.80;99.90
29917;DHT22;16786;49.466;11.068;2023-04-15T12:11:49;8.90;99.90
29917;DHT22;16786;49.466;11.068;2023-04-15T12:14:24;8.90;99.90
29917;DHT22;16786;49.466;11.068;2023-04-15T12:16:54;8.90;99.90
29917;DHT22;16786;49.466;11.068;2023-04-15T12:19:26;8.70;99.90
29917;DHT22;16786;49.466;11.068;2023-04-15T12:22:11;8.60;99.90
29917;DHT22;16786;49.466;11.068;2023-04-15T12:24:39;8.50;99.90
29917;DHT22;16786;49.466;11.068;2023-04-15T12:27:10;8.60;99.90
29917;DHT22;16786;49.466;11.068;2023-04-15T12:29:39;8.60;99.90
29917;DHT22;16786;49.466;11.068;2023-04-15T12:32:12;8.60;99.90
29917;DHT22;16786;49.466;11.068;2023-04-15T12:34:50;8.70;99.90
29917;DHT22;16786;49.466;11.068;2023-04-15T12:37:18;8.90;99.90
29917;DHT22;16786;49.466;11.068;2023-04-15T12:39:48;8.90;99.90
29917;DHT22;16786;49.466;11.068;2023-04-15T12:42:16;8.90;99.90
29917;DHT22;16786;49.466;11.068;2023-04-15T12:44:43;8.80;99.90
29917;DHT22;16786;49.466;11.068;2023-04-15T12:47:11;8.90;99.90
29917;DHT22;16786;49.466;11.068;2023-04-15T12:49:39;8.90;99.90
29917;DHT22;16786;49.466;11.068;2023-04-15T12:52:07;9.00;99.90
29917;DHT22;16786;49.466;11.068;2023-04-15T12:54:34;9.00;99.90
29917;DHT22;16786;49.466;11.068;2023-04-15T12:57:02;9.20;99.90
29917;DHT22;16786;49.466;11.068;2023-04-15T12:59:34;9.30;99.90
29917;DHT22;16786;49.466;11.068;2023-04-15T13:02:01;9.20;99.90
29917;DHT22;16786;49.466;11.068;2023-04-15T13:04:29;9.30;99.90
29917;DHT22;16786;49.466;11.068;2023-04-15T13:06:57;9.30;99.90
29917;DHT22;16786;49.466;11.068;2023-04-15T13:09:25;9.30;99.90
29917;DHT22;16786;49.466;11.068;2023-04-15T13:11:52;9.30;99.90
29917;DHT22;16786;49.466;11.068;2023-04-15T13:14:20;9.30;99.90
29917;DHT22;16786;49.466;11.068;2023-04-15T13:16:47;9.30;99.90
29917;DHT22;16786;49.466;11.068;2023-04-15T13:19:15;9.30;99.90
29917;DHT22;16786;49.466;11.068;2023-04-15T13:21:42;9.30;99.90
29917;DHT22;16786;49.466;11.068;2023-04-15T13:24:09;9.20;99.90
29917;DHT22;16786;49.466;11.068;2023-04-15T13:26:36;9.20;99.90
29917;DHT22;16786;49.466;11.068;2023-04-15T13:29:04;9.20;99.90
29917;DHT22;16786;49.466;11.068;2023-04-15T13:31:31;9.10;99.90
29917;DHT22;16786;49.466;11.068;2023-04-15T13:33:58;9.10;99.90
29917;DHT22;16786;49.466;11.068;2023-04-15T13:36:26;9.20;99.90
29917;DHT22;16786;49.466;11.068;2023-04-15T13:38:53;9.20;99.90
29917;DHT22;16786;49.466;11.068;2023-04-15T13:41:21;9.20;99.90
29917;DHT22;16786;49.466;11.068;2023-04-15T13:43:48;9.20;99.90
29917;DHT22;16786;49.466;11.068;2023-04-15T13:46:16;9.10;99.90
29917;DHT22;16786;49.466;11.068;2023-04-15T13:48:43;9.20;99.90
29917;DHT22;16786;49.466;11.068;2023-04-15T13:51:10;9.20;99.90
29917;DHT22;16786;49.466;11.068;2023-04-15T13:53:38;9.30;99.90
29917;DHT22;16786;49.466;11.068;2023-04-15T13:56:06;9.30;99.90
29917;DHT22;16786;49.466;11.068;2023-04-15T13:58:35;9.30;99.90
29917;DHT22;16786;49.466;11.068;2023-04-15T14:01:03;9.40;99.90
29917;DHT22;16786;49.466;11.068;2023-04-15T14:03:33;9.40;99.90
29917;DHT22;16786;49.466;11.068;2023-04-15T14:06:01;9.40;99.90
29917;DHT22;16786;49.466;11.068;2023-04-15T14:08:29;9.40;99.90
29917;DHT22;16786;49.466;11.068;2023-04-15T14:10:57;9.40;99.90
29917;DHT22;16786;49.466;11.068;2023-04-15T14:13:25;9.50;99.90
29917;DHT22;16786;49.466;11.068;2023-04-15T14:15:52;9.40;99.90
29917;DHT22;16786;49.466;11.068;2023-04-15T14:18:19;9.30;99.90
29917;DHT22;16786;49.466;11.068;2023-04-15T14:20:47;9.20;99.90
29917;DHT22;16786;49.466;11.068;2023-04-15T14:23:14;9.10;99.90
29917;DHT22;16786;49.466;11.068;2023-04-15T14:25:41;9.10;99.90
29917;DHT22;16786;49.466;11.068;2023-04-15T14:28:10;9.00;99.90
29917;DHT22;16786;49.466;11.068;2023-04-15T14:30:37;9.00;99.90
29917;DHT22;16786;49.466;11.068;2023-04-15T14:33:05;9.00;99.90
29917;DHT22;16786;49.466;11.068;2023-04-15T14:35:32;9.10;99.90
29917;DHT22;16786;49.466;11.068;2023-04-15T14:37:59;9.10;99.90
29917;DHT22;16786;49.466;11.068;2023-04-15T14:40:27;9.10;99.90
29917;DHT22;16786;49.466;11.068;2023-04-15T14:42:54;9.10;99.90
29917;DHT22;16786;49.466;11.068;2023-04-15T14:45:22;9.10;99.90
29917;DHT22;16786;49.466;11.068;2023-04-15T14:47:50;9.10;99.90
29917;DHT22;16786;49.466;11.068;2023-04-15T14:50:19;9.10;99.90
29917;DHT22;16786;49.466;11.068;2023-04-15T14:52:46;9.10;99.90
29917;DHT22;16786;49.466;11.068;2023-04-15T14:55:14;9.00;99.90
29917;DHT22;16786;49.466;11.068;2023-04-15T14:57:42;9.00;99.90
29917;DHT22;16786;49.466;11.068;2023-04-15T15:00:10;9.00;99.90
29917;DHT22;16786;49.466;11.068;2023-04-15T15:02:42;9.00;99.90
29917;DHT22;16786;49.466;11.068;2023-04-15T15:05:10;9.00;99.90
29917;DHT22;16786;49.466;11.068;2023-04-15T15:07:39;9.00;99.90
29917;DHT22;16786;49.466;11.068;2023-04-15T15:10:09;8.90;99.90
29917;DHT22;16786;49.466;11.068;2023-04-15T15:12:37;8.80;99.90
29917;DHT22;16786;49.466;11.068;2023-04-15T15:15:04;8.70;99.90
29917;DHT22;16786;49.466;11.068;2023-04-15T15:17:52;8.80;99.90
29917;DHT22;16786;49.466;11.068;2023-04-15T15:20:20;8.80;99.90
29917;DHT22;16786;49.466;11.068;2023-04-15T15:22:47;8.80;99.90
29917;DHT22;16786;49.466;11.068;2023-04-15T15:25:14;8.70;99.90
29917;DHT22;16786;49.466;11.068;2023-04-15T15:27:42;8.70;99.90
29917;DHT22;16786;49.466;11.068;2023-04-15T15:30:10;8.70;99.90
29917;DHT22;16786;49.466;11.068;2023-04-15T15:32:41;8.70;99.90
29917;DHT22;16786;49.466;11.068;2023-04-15T15:35:09;8.70;99.90
29917;DHT22;16786;49.466;11.068;2023-04-15T15:37:37;8.60;99.90
29917;DHT22;16786;49.466;11.068;2023-04-15T15:40:04;8.60;99.90
29917;DHT22;16786;49.466;11.068;2023-04-15T15:42:33;8.50;99.90
29917;DHT22;16786;49.466;11.068;2023-04-15T15:45:02;8.50;99.90
29917;DHT22;16786;49.466;11.068;2023-04-15T15:47:30;8.40;99.90
29917;DHT22;16786;49.466;11.068;2023-04-15T15:49:59;8.40;99.90
29917;DHT22;16786;49.466;11.068;2023-04-15T15:52:29;8.30;99.90